Latest Weather Observations for Mount Magnet Airport

IDW60801

Issued at 9:35 am WST Monday 15 September 2014 (issued every 30 minutes, with the page automatically refreshed every 10 minutes)

About weather observations | Map of weather stations | Latest weather observations for WA | Other Formats
Station Details ID: 007600 Name: MOUNT MAGNET AERO Lat: -28.12 Lon: 117.84 Height: 407.0 m
Data from the previous 72 hours. | See also: Recent months at Mount Magnet Airport
Date/Time
WST
Temp
°C
App
Temp
°C
Dew
Point
Rel
Hum
%
Delta-T
°C
Wind Press
QNH
hPa
Press
MSL
hPa
Rain
since 9 am
mm
Dir
 
Spd
km/h
Gust
km/h
Spd
kts
Gust
kts
15/09:30am 22.1 15.3 -1.9 20 10.6 E 24 32 13 17 1022.0 1021.0 0.0
15/09:00am 20.5 14.4 -2.5 21 9.9 E 20 28 11 15 1022.2 1021.2 0.0
15/08:30am 19.4 13.2 -2.8 22 9.4 E 20 30 11 16 1022.4 1021.4 0.0
15/08:00am 18.2 12.2 -2.7 24 8.8 E 19 26 10 14 1022.3 1021.3 0.0
15/07:30am 16.1 11.7 -2.4 28 7.7 ENE 11 19 6 10 1022.3 1021.3 0.0
15/07:00am 13.4 10.0 -1.7 35 6.2 E 6 7 3 4 1022.0 1021.0 0.0
15/06:30am 12.1 8.5 -1.8 38 5.6 SE 7 9 4 5 1021.8 1020.8 0.0
15/06:00am 11.7 8.1 -1.8 39 5.4 SE 7 9 4 5 1021.4 1020.5 0.0
15/05:30am 12.2 8.3 -1.7 38 5.6 SE 9 11 5 6 1021.1 1020.2 0.0
15/05:00am 13.1 9.6 -1.6 36 6.0 ESE 7 9 4 5 1020.8 1019.8 0.0
15/04:30am 14.0 9.3 -1.6 34 6.5 SE 13 15 7 8 1020.7 1019.7 0.0
15/04:00am 14.8 10.2 -1.3 33 6.7 SE 13 17 7 9 1020.6 1019.6 0.0
15/03:30am 15.4 10.8 -1.2 32 7.0 ESE 13 15 7 8 1020.3 1019.3 0.0
15/03:00am 16.0 11.0 -1.1 31 7.3 SE 15 17 8 9 1020.2 1019.2 0.0
15/02:30am 16.5 11.1 -1.1 30 7.5 ESE 17 24 9 13 1020.0 1019.0 0.0
15/02:00am 16.6 11.6 -1.5 29 7.7 ESE 15 20 8 11 1020.1 1019.1 0.0
15/01:30am 16.9 11.5 -1.2 29 7.8 ESE 17 20 9 11 1020.2 1019.2 0.0
15/01:00am 17.5 11.7 -1.2 28 8.0 SE 19 26 10 14 1020.2 1019.2 0.0
15/12:30am 16.8 12.2 -0.9 30 7.6 ESE 13 19 7 10 1020.4 1019.4 0.0
15/12:00am 15.9 11.7 -1.2 31 7.2 ESE 11 17 6 9 1020.7 1019.7 0.0
 
Date/Time
WST
Temp
°C
App
Temp
°C
Dew
Point
Rel
Hum
%
Delta-T
°C
Wind Press
QNH
hPa
Press
MSL
hPa
Rain
since 9 am
mm
Dir
 
Spd
km/h
Gust
km/h
Spd
kts
Gust
kts
14/11:30pm 16.5 12.7 -1.1 30 7.5 ESE 9 13 5 7 1020.8 1019.8 0.0
14/11:00pm 17.4 14.0 -0.8 29 7.9 S 7 9 4 5 1020.8 1019.8 0.0
14/10:30pm 18.2 14.7 -1.1 27 8.4 S 7 11 4 6 1020.9 1019.9 0.0
14/10:00pm 18.6 14.4 -0.7 27 8.5 S 11 13 6 7 1021.0 1020.1 0.0
14/09:30pm 18.6 15.1 -1.3 26 8.6 SSE 7 9 4 5 1021.2 1020.3 0.0
14/09:00pm 19.5 16.0 -1.6 24 9.2 SE 7 11 4 6 1021.3 1020.4 0.0
14/08:30pm 20.0 16.1 -1.7 23 9.5 S 9 11 5 6 1021.2 1020.3 0.0
14/08:00pm 20.8 17.0 -1.1 23 9.7 S 9 15 5 8 1021.0 1020.1 0.0
14/07:30pm 21.9 18.4 -1.4 21 10.4 SE 7 11 4 6 1020.7 1019.7 0.0
14/07:00pm 23.9 19.7 -1.1 19 11.4 S 11 15 6 8 1020.3 1019.3 0.0
14/06:30pm 24.8 20.6 -1.1 18 11.9 SSE 11 13 6 7 1019.8 1018.8 0.0
14/06:00pm 26.0 20.9 -1.7 16 12.7 S 15 19 8 10 1019.4 1018.4 0.0
14/05:30pm 26.5 21.7 -2.2 15 13.1 S 13 17 7 9 1019.1 1018.1 0.0
14/05:00pm 26.7 21.7 -1.2 16 13.0 SE 15 20 8 11 1018.8 1017.9 0.0
14/04:30pm 26.4 21.9 -0.6 17 12.7 S 13 22 7 12 1018.7 1017.7 0.0
14/04:00pm 26.3 22.0 0.9 19 12.2 SW 13 22 7 12 1018.6 1017.6 0.0
14/03:30pm 26.3 22.0 0.9 19 12.2 S 13 19 7 10 1018.7 1017.7 0.0
14/03:00pm 26.0 22.3 -0.1 18 12.3 SSE 9 17 5 9 1019.1 1018.1 0.0
14/02:30pm 25.9 22.7 0.5 19 12.1 W 7 15 4 8 1019.3 1018.3 0.0
14/02:00pm 25.6 21.2 0.3 19 12.0 SW 13 20 7 11 1019.5 1018.5 0.0
14/01:30pm 25.1 21.8 2.5 23 11.1 ESE 9 20 5 11 1019.8 1018.8 0.0
14/01:00pm 24.3 20.0 1.2 22 11.0 SW 13 22 7 12 1020.3 1019.3 0.0
14/12:30pm 23.7 20.0 2.5 25 10.3 S 11 20 6 11 1020.6 1019.6 0.0
14/12:00pm 22.9 19.7 2.9 27 9.7 S 9 20 5 11 1020.9 1019.9 0.0
14/11:30am 22.5 19.3 3.1 28 9.5 E 9 19 5 10 1021.4 1020.5 0.0
14/11:00am 22.3 18.4 3.4 29 9.2 E 13 22 7 12 1021.7 1020.7 0.0
14/10:30am 21.6 18.2 3.8 31 8.8 E 11 20 6 11 1022.0 1021.0 0.0
14/10:00am 20.8 17.0 4.0 33 8.2 E 13 20 7 11 1022.3 1021.3 0.0
14/09:30am 20.3 16.4 3.5 33 8.1 E 13 24 7 13 1022.3 1021.3 0.0
14/09:00am 19.4 15.0 2.7 33 7.9 E 15 19 8 10 1022.1 1021.1 0.0
14/08:30am 18.5 13.8 3.2 36 7.3 E 17 22 9 12 1021.9 1020.9 0.0
14/08:00am 16.0 12.2 3.8 44 5.7 E 13 17 7 9 1021.7 1020.7 0.0
14/07:30am 14.5 11.0 3.6 48 5.1 ESE 11 17 6 9 1021.7 1020.7 0.0
14/07:00am 12.5 9.5 4.2 57 3.8 S 9 11 5 6 1021.4 1020.5 0.0
14/06:30am 11.6 8.6 4.3 61 3.4 S 9 11 5 6 1021.2 1020.3 0.0
14/06:00am 11.1 8.2 4.8 65 2.9 S 9 11 5 6 1020.9 1019.9 0.0
14/05:30am 11.5 9.3 5.2 65 3.0 S 6 7 3 4 1020.7 1019.7 0.0
14/05:00am 12.4 10.0 5.3 62 3.4 S 7 9 4 5 1020.4 1019.4 0.0
14/04:30am 12.8 10.1 5.5 61 3.5 S 9 9 5 5 1020.1 1019.1 0.0
14/04:00am 12.8 11.0 5.5 61 3.5 S 4 7 2 4 1020.0 1019.0 0.0
14/03:30am 12.8 10.5 5.5 61 3.5 S 7 9 4 5 1020.0 1019.0 0.0
14/03:00am 13.6 10.9 5.7 59 3.8 S 9 11 5 6 1020.1 1019.1 0.0
14/02:30am 14.2 11.9 5.6 56 4.2 SSE 7 9 4 5 1020.2 1019.2 0.0
14/02:00am 14.5 12.2 5.6 55 4.3 SSE 7 9 4 5 1020.0 1019.0 0.0
14/01:30am 15.4 11.9 5.6 52 4.8 S 13 15 7 8 1020.1 1019.1 0.0
14/01:00am 15.9 12.5 5.8 51 5.0 SSE 13 15 7 8 1020.3 1019.3 0.0
14/12:30am 16.4 13.0 5.7 49 5.3 SSE 13 15 7 8 1020.5 1019.5 0.0
14/12:00am 16.8 13.3 5.4 47 5.6 S 13 17 7 9 1020.3 1019.3 0.0
 
Date/Time
WST
Temp
°C
App
Temp
°C
Dew
Point
Rel
Hum
%
Delta-T
°C
Wind Press
QNH
hPa
Press
MSL
hPa
Rain
since 9 am
mm
Dir
 
Spd
km/h
Gust
km/h
Spd
kts
Gust
kts
13/11:30pm 17.1 14.2 4.8 44 6.0 S 9 11 5 6 1020.4 1019.4 0.0
13/11:00pm 17.5 13.7 4.1 41 6.4 SSW 13 17 7 9 1020.4 1019.4 0.0
13/10:30pm 18.1 14.7 3.9 39 6.8 S 11 13 6 7 1020.4 1019.4 0.0
13/10:00pm 18.9 14.6 3.5 36 7.4 S 15 17 8 9 1020.4 1019.4 0.0
13/09:30pm 19.6 14.5 2.9 33 8.0 S 19 20 10 11 1020.4 1019.4 0.0
13/09:00pm 20.3 15.5 2.6 31 8.4 S 17 20 9 11 1020.5 1019.5 0.0
13/08:30pm 21.2 16.4 2.5 29 9.0 S 17 20 9 11 1020.3 1019.3 0.0
13/08:00pm 21.9 17.4 2.1 27 9.4 S 15 17 8 9 1020.3 1019.3 0.0
13/07:30pm 22.6 18.5 2.1 26 9.8 S 13 19 7 10 1019.9 1018.9 0.0
13/07:00pm 23.3 18.9 2.7 26 10.0 SSW 15 20 8 11 1019.5 1018.5 0.0
13/06:30pm 24.2 19.8 2.9 25 10.5 SSW 15 20 8 11 1019.2 1018.2 0.0
13/06:00pm 25.0 20.7 3.0 24 10.9 SW 15 20 8 11 1019.1 1018.1 0.0
13/05:30pm 25.7 21.0 3.0 23 11.3 SW 17 26 9 14 1018.6 1017.6 0.0
13/05:00pm 26.3 21.6 2.9 22 11.7 SW 17 28 9 15 1018.5 1017.5 0.0
13/04:30pm 26.7 21.4 3.2 22 11.8 SSW 20 26 11 14 1018.3 1017.3 0.0
13/04:00pm 26.8 22.9 3.3 22 11.8 WSW 13 19 7 10 1018.2 1017.2 0.0
13/03:30pm 26.8 23.4 4.0 23 11.7 S 11 17 6 9 1018.1 1017.1 0.0
13/03:00pm 26.7 22.0 3.2 22 11.8 W 17 22 9 12 1018.1 1017.1 0.0
13/02:30pm 27.2 23.0 3.7 22 12.0 SW 15 26 8 14 1018.2 1017.2 0.0
13/02:00pm 26.0 22.7 4.5 25 11.0 WSW 11 17 6 9 1018.5 1017.5 0.0
13/01:30pm 25.2 21.6 3.2 24 11.0 SW 11 20 6 11 1018.7 1017.7 0.0
13/01:00pm 25.4 21.8 5.1 27 10.5 SW 13 22 7 12 1018.9 1018.0 0.0
13/12:30pm 24.2 21.3 4.6 28 10.0 SW 9 17 5 9 1019.5 1018.5 0.0
13/12:00pm 23.8 21.0 5.2 30 9.5 SW 9 15 5 8 1019.9 1018.9 0.0
13/11:30am 22.7 19.9 6.9 36 8.3 SSW 11 17 6 9 1020.3 1019.3 0.0
13/11:00am 21.6 18.9 7.4 40 7.5 S 11 15 6 8 1020.7 1019.7 0.0
13/10:30am 20.8 18.8 8.8 46 6.5 S 9 15 5 8 1021.1 1020.2 0.0
13/10:00am 19.4 16.6 8.4 49 5.8 SSE 13 19 7 10 1021.2 1020.3 0.0
13/09:30am 18.3 14.7 8.3 52 5.3 S 17 20 9 11 1021.4 1020.5 0.0
13/09:00am 18.0 14.1 8.8 55 4.9 S 19 24 10 13 1021.5 1020.6 0.0
13/08:30am 16.4 12.9 8.9 61 3.9 S 17 20 9 11 1021.4 1020.5 0.0
13/08:00am 15.3 11.3 9.2 67 3.2 S 20 28 11 15 1021.2 1020.3 0.0
13/07:30am 13.9 10.6 9.5 75 2.3 SSW 17 22 9 12 1021.1 1020.2 0.0
13/07:00am 13.4 10.9 9.6 78 2.0 SSW 13 17 7 9 1020.6 1019.6 0.0
13/06:30am 12.8 11.0 9.4 80 1.8 SW 9 11 5 6 1020.3 1019.3 0.0
13/06:00am 13.0 10.8 9.4 79 1.9 SW 11 15 6 8 1020.0 1019.0 0.0
13/05:30am 13.4 10.8 9.3 76 2.1 SW 13 15 7 8 1019.7 1018.7 0.0
13/05:00am 13.8 10.8 9.3 74 2.3 SSW 15 20 8 11 1019.5 1018.5 0.0
13/04:30am 14.2 11.6 9.2 72 2.6 SSW 13 20 7 11 1019.2 1018.2 0.0
13/04:00am 14.9 12.2 9.1 68 3.0 SSW 13 17 7 9 1018.9 1018.0 0.0
13/03:30am 15.2 13.4 9.3 68 3.1 SSW 9 13 5 7 1018.7 1017.7 0.0
13/03:00am 16.1 13.9 9.3 64 3.6 S 11 13 6 7 1018.5 1017.5 0.0
13/02:30am 16.8 13.0 9.2 61 4.0 SSW 19 28 10 15 1018.8 1017.9 0.0
13/02:00am 17.5 13.7 9.2 58 4.4 SSW 19 28 10 15 1018.3 1017.3 0.0
13/01:30am 17.9 14.4 8.7 55 4.9 S 17 20 9 11 1018.6 1017.6 0.0
13/01:00am 18.5 15.7 8.7 53 5.2 SSW 13 17 7 9 1018.7 1017.7 0.0
13/12:30am 19.0 16.5 8.4 50 5.6 SSW 11 13 6 7 1018.7 1017.7 0.0
13/12:00am 20.2 16.1 8.8 48 6.1 S 20 32 11 17 1018.4 1017.4 0.0
 
Date/Time
WST
Temp
°C
App
Temp
°C
Dew
Point
Rel
Hum
%
Delta-T
°C
Wind Press
QNH
hPa
Press
MSL
hPa
Rain
since 9 am
mm
Dir
 
Spd
km/h
Gust
km/h
Spd
kts
Gust
kts
12/11:30pm 20.6 16.5 7.9 44 6.7 SSW 19 26 10 14 1018.4 1017.4 0.0
12/11:00pm 21.2 16.9 7.1 40 7.4 SSW 19 24 10 13 1018.6 1017.6 0.0
12/10:30pm 22.1 17.1 4.6 32 8.8 SW 20 28 11 15 1018.5 1017.5 0.0
12/10:00pm 23.1 17.7 2.6 26 9.9 SW 20 28 11 15 1018.3 1017.3 0.0
12/09:30pm 23.8 18.6 2.6 25 10.4 SSW 19 28 10 15 1018.1 1017.1 0.0
12/09:00pm 24.2 19.4 2.4 24 10.6 SW 17 20 9 11 1017.9 1016.9 0.0
12/08:30pm 24.1 20.3 1.7 23 10.8 WSW 11 15 6 8 1017.5 1016.5 0.0
12/08:00pm 24.9 20.5 0.4 20 11.6 WSW 13 15 7 8 1017.1 1016.1 0.0
12/07:30pm 25.4 21.0 0.1 19 11.9 W 13 13 7 7 1016.8 1015.8 0.0
12/07:00pm 26.6 22.8 -0.4 17 12.7 WSW 9 11 5 6 1016.3 1015.3 0.0
12/06:30pm 28.3 23.6 -1.7 14 14.0 WSW 13 17 7 9 1016.0 1015.0 0.0
12/06:00pm 29.4 23.5 -1.9 13 14.7 W 19 26 10 14 1015.8 1014.8 0.0
12/05:30pm 30.6 23.6 -3.2 11 15.6 WNW 24 32 13 17 1015.5 1014.5 0.0
12/05:00pm 31.4 23.2 -3.8 10 16.2 WNW 30 43 16 23 1015.4 1014.4 0.0
12/04:30pm 32.3 24.2 -3.2 10 16.6 NW 30 43 16 23 1015.3 1014.3 0.0
12/04:21pm 31.9 24.1 -3.5 10 16.5 NW 28 46 15 25 1015.2 1014.2 0.0
12/04:00pm 32.4 23.9 -3.1 10 16.7 NNW 32 48 17 26 1015.2 1014.2 0.0
12/03:56pm 32.2 24.5 -3.2 10 16.6 N 28 48 15 26 1015.1 1014.1 0.0
12/03:30pm 32.0 23.5 -3.4 10 16.5 NNW 32 44 17 24 1015.1 1014.1 0.0
12/03:00pm 32.9 26.0 -2.7 10 16.9 NNW 24 44 13 24 1015.2 1014.2 0.0
12/02:53pm 32.0 24.2 -3.4 10 16.5 NNW 28 46 15 25 1015.2 1014.2 0.0
12/02:48pm 32.8 24.7 -2.8 10 16.9 NNW 30 46 16 25 1015.2 1014.2 0.0
12/02:30pm 32.0 26.9 -2.1 11 16.2 WNW 15 24 8 13 1015.4 1014.4 0.0
12/02:00pm 31.8 26.4 -1.1 12 15.9 NW 17 30 9 16 1015.8 1014.8 0.0
12/01:30pm 31.8 26.6 0.0 13 15.7 N 17 33 9 18 1016.1 1015.1 0.0
12/01:00pm 30.8 23.8 -0.8 13 15.2 N 26 37 14 20 1016.7 1015.6 0.0
12/12:30pm 31.1 25.4 0.5 14 15.1 N 20 35 11 19 1017.3 1016.3 0.0
12/12:00pm 29.5 23.0 0.2 15 14.2 N 24 30 13 16 1017.7 1016.7 0.0
12/11:30am 29.2 22.4 0.8 16 13.9 NNE 26 35 14 19 1018.3 1017.3 0.0
12/11:00am 28.9 22.2 1.4 17 13.6 NNE 26 35 14 19 1018.9 1018.0 0.0
12/10:30am 27.9 21.3 2.2 19 12.8 NE 26 39 14 21 1019.3 1018.3 0.0
12/10:00am 26.3 19.7 2.3 21 11.8 NNE 26 35 14 19 1019.7 1018.7 0.0

Other Formats:

Comma delimited format used in spreadsheet applications
http://www.bom.gov.au/fwo/IDW60801/IDW60801.94429.axf

JavaScript Object Notation format (JSON) in row-major order
http://www.bom.gov.au/fwo/IDW60801/IDW60801.94429.json